Time;durP1;ratioP1;P1;durP2;ratioP2;P2;SDS_P1;SDS_P2;PMS_P1;PMS_P2;Temp;Humidity;BMP_temperature;BMP_pressure;BME280_temperature;BME280_humidity;BME280_pressure;Samples;Min_cycle;Max_cycle;Signal;HPM_P1;HPM_P2
2022/03/31 00:02:09;;;;;;;0.10;0.10;;;9.30;99.90;;;;;;5002793;28;20021;-71
2022/03/31 00:04:37;;;;;;;0.10;0.10;;;9.40;99.90;;;;;;5017791;28;20052;-72
2022/03/31 00:07:03;;;;;;;0.20;0.20;;;9.40;99.90;;;;;;5002064;28;20014;-72
2022/03/31 00:09:29;;;;;;;0.10;0.10;;;9.40;99.90;;;;;;5004318;28;20034;-73
2022/03/31 00:11:54;;;;;;;0.10;0.10;;;9.50;99.90;;;;;;5005000;28;20069;-72
2022/03/31 00:14:20;;;;;;;0.17;0.17;;;9.50;99.90;;;;;;5000272;28;20030;-74
2022/03/31 00:16:47;;;;;;;0.30;0.30;;;10.40;99.90;;;;;;4997678;28;20514;-73
2022/03/31 00:19:12;;;;;;;0.20;0.20;;;9.60;99.90;;;;;;4999937;28;20041;-72
2022/03/31 00:21:38;;;;;;;0.15;0.15;;;9.50;99.90;;;;;;5003424;28;20029;-72
2022/03/31 00:24:04;;;;;;;0.10;0.10;;;9.60;99.90;;;;;;5001196;28;20525;-73
2022/03/31 00:26:29;;;;;;;1.45;1.45;;;9.60;99.90;;;;;;4997916;28;20041;-72
2022/03/31 00:28:55;;;;;;;0.10;0.10;;;9.50;99.90;;;;;;5000138;28;20027;-73
2022/03/31 00:31:21;;;;;;;0.10;0.10;;;9.50;99.90;;;;;;5001151;28;20036;-72
2022/03/31 00:33:46;;;;;;;0.10;0.10;;;9.50;99.90;;;;;;5002163;28;20080;-72
2022/03/31 00:36:13;;;;;;;0.10;0.10;;;9.40;99.90;;;;;;5000424;28;20041;-72
2022/03/31 00:38:38;;;;;;;0.10;0.10;;;9.40;99.90;;;;;;5004556;28;20034;-71
2022/03/31 00:41:04;;;;;;;0.10;0.10;;;9.20;99.90;;;;;;5020938;28;20022;-72
2022/03/31 00:43:29;;;;;;;0.10;0.10;;;9.20;99.90;;;;;;5002515;28;20026;-72
2022/03/31 00:45:56;;;;;;;0.10;0.10;;;9.20;99.90;;;;;;5003959;28;20049;-72
2022/03/31 00:48:23;;;;;;;0.10;0.10;;;9.20;99.90;;;;;;5004553;28;20058;-72
2022/03/31 00:50:49;;;;;;;0.20;0.20;;;9.20;99.90;;;;;;5003048;28;20109;-72
2022/03/31 00:53:16;;;;;;;0.10;0.10;;;9.20;99.90;;;;;;4996693;28;20030;-73
2022/03/31 00:55:44;;;;;;;0.10;0.10;;;9.20;99.90;;;;;;5002793;28;20061;-72
2022/03/31 00:58:10;;;;;;;0.43;0.43;;;9.10;99.90;;;;;;4996880;28;20025;-72
2022/03/31 01:00:36;;;;;;;0.10;0.10;;;9.00;99.90;;;;;;5012663;28;20061;-71
2022/03/31 01:03:02;;;;;;;0.10;0.10;;;9.00;99.90;;;;;;4999955;28;20034;-73
2022/03/31 01:05:28;;;;;;;0.10;0.10;;;9.00;99.90;;;;;;5002323;28;20127;-72
2022/03/31 01:07:55;;;;;;;0.10;0.10;;;9.00;99.90;;;;;;4998925;28;20113;-72
2022/03/31 01:10:21;;;;;;;0.10;0.10;;;9.00;99.90;;;;;;4997557;28;20189;-72
2022/03/31 01:12:46;;;;;;;0.10;0.10;;;9.10;99.90;;;;;;5003118;28;20125;-72
2022/03/31 01:15:16;;;;;;;0.10;0.10;;;9.10;99.90;;;;;;5001672;28;20555;-71
2022/03/31 01:17:44;;;;;;;0.20;0.20;;;9.00;99.90;;;;;;4997284;28;20077;-72
2022/03/31 01:20:16;;;;;;;0.10;0.10;;;8.90;99.90;;;;;;5000298;28;20121;-72
2022/03/31 01:22:43;;;;;;;0.10;0.10;;;8.90;99.90;;;;;;5002930;28;20053;-71
2022/03/31 01:25:09;;;;;;;0.10;0.10;;;8.90;99.90;;;;;;4998440;28;20081;-72
2022/03/31 01:27:37;;;;;;;0.10;0.10;;;8.90;99.90;;;;;;5017333;28;20026;-71
2022/03/31 01:30:08;;;;;;;0.40;0.40;;;8.90;99.90;;;;;;5003336;28;20089;-72
2022/03/31 01:32:34;;;;;;;0.40;0.40;;;8.90;99.90;;;;;;5000130;28;20022;-72
2022/03/31 01:35:01;;;;;;;0.10;0.10;;;9.60;99.90;;;;;;4999296;28;20033;-72
2022/03/31 01:37:26;;;;;;;0.10;0.10;;;8.90;99.90;;;;;;5000446;28;20018;-72
2022/03/31 01:39:52;;;;;;;0.20;0.20;;;8.80;99.90;;;;;;4997260;28;20041;-71
2022/03/31 01:42:18;;;;;;;0.10;0.10;;;8.80;99.90;;;;;;4997344;28;20054;-71
2022/03/31 01:44:43;;;;;;;0.45;0.45;;;8.80;99.90;;;;;;4998361;28;20034;-72
2022/03/31 01:47:09;;;;;;;0.10;0.10;;;8.80;99.90;;;;;;5001884;28;20030;-72
2022/03/31 01:49:38;;;;;;;0.10;0.10;;;8.80;99.90;;;;;;5001558;28;20041;-72
2022/03/31 01:52:06;;;;;;;1.23;1.13;;;8.80;99.90;;;;;;5001258;28;20085;-71
2022/03/31 01:54:32;;;;;;;0.10;0.10;;;8.80;99.90;;;;;;4996632;28;20109;-72
2022/03/31 01:56:58;;;;;;;0.10;0.10;;;8.70;99.90;;;;;;4995830;28;20140;-71
2022/03/31 01:59:30;;;;;;;0.10;0.10;;;8.70;99.90;;;;;;5003238;28;20092;-74
2022/03/31 02:01:56;;;;;;;0.68;0.68;;;8.10;99.90;;;;;;5003592;28;20065;-72
2022/03/31 02:04:22;;;;;;;0.10;0.10;;;8.80;99.90;;;;;;5004714;28;20060;-72
2022/03/31 02:06:47;;;;;;;0.10;0.10;;;8.80;99.90;;;;;;4996325;28;20148;-72
2022/03/31 02:09:13;;;;;;;0.10;0.10;;;8.70;99.90;;;;;;4998425;28;20029;-73
2022/03/31 02:11:38;;;;;;;1.55;1.45;;;8.70;99.90;;;;;;5003133;28;20614;-71
2022/03/31 02:14:04;;;;;;;0.15;0.15;;;8.60;99.90;;;;;;4998706;28;20030;-72
2022/03/31 02:16:29;;;;;;;0.10;0.10;;;8.60;99.90;;;;;;4996766;28;20411;-72
2022/03/31 02:18:55;;;;;;;0.10;0.10;;;8.60;99.90;;;;;;4997755;28;20476;-72
2022/03/31 02:21:20;;;;;;;0.10;0.10;;;8.60;99.90;;;;;;4999454;28;20026;-71
2022/03/31 02:23:47;;;;;;;0.20;0.20;;;8.60;99.90;;;;;;4996396;28;20037;-71
2022/03/31 02:26:12;;;;;;;0.10;0.10;;;8.60;99.90;;;;;;4995839;28;20030;-71
2022/03/31 02:28:39;;;;;;;0.10;0.10;;;8.60;99.90;;;;;;5002113;28;20038;-72
2022/03/31 02:31:04;;;;;;;0.10;0.10;;;8.60;99.90;;;;;;5002441;28;20049;-72
2022/03/31 02:33:30;;;;;;;0.10;0.10;;;8.40;99.90;;;;;;5001890;28;20103;-72
2022/03/31 02:35:56;;;;;;;0.10;0.10;;;8.40;99.90;;;;;;5002905;28;20483;-71
2022/03/31 02:38:22;;;;;;;0.45;0.45;;;8.40;99.90;;;;;;5004094;28;21370;-72
2022/03/31 02:40:47;;;;;;;0.10;0.10;;;8.30;99.90;;;;;;5001172;28;20022;-72
2022/03/31 02:43:13;;;;;;;0.10;0.10;;;8.20;99.90;;;;;;5000342;28;20038;-72
2022/03/31 02:45:39;;;;;;;0.10;0.10;;;8.20;99.90;;;;;;5001816;28;20065;-72
2022/03/31 02:48:05;;;;;;;0.10;0.10;;;8.10;99.90;;;;;;4998542;28;20018;-72
2022/03/31 02:50:31;;;;;;;0.25;0.25;;;8.00;99.90;;;;;;4998337;28;20402;-72
2022/03/31 02:55:41;;;;;;;0.40;0.40;;;7.90;99.90;;;;;;4999939;28;20412;-72
2022/03/31 02:58:07;;;;;;;0.10;0.10;;;7.70;99.90;;;;;;4998886;28;20022;-72
2022/03/31 03:00:35;;;;;;;0.15;0.15;;;7.70;99.90;;;;;;5002540;28;20018;-73
2022/03/31 03:03:03;;;;;;;0.10;0.10;;;7.60;99.90;;;;;;5002339;28;20031;-72
2022/03/31 03:05:30;;;;;;;0.10;0.10;;;7.60;99.90;;;;;;5003246;28;20049;-72
2022/03/31 03:07:56;;;;;;;0.10;0.10;;;7.50;99.90;;;;;;4999494;28;20112;-71
2022/03/31 03:10:22;;;;;;;0.10;0.10;;;7.60;99.90;;;;;;5004054;28;20285;-71
2022/03/31 03:12:49;;;;;;;0.40;0.40;;;7.60;99.90;;;;;;5003912;28;20488;-72
2022/03/31 03:15:15;;;;;;;0.40;0.40;;;7.50;99.90;;;;;;4999492;28;20068;-73
2022/03/31 03:17:43;;;;;;;0.10;0.10;;;7.50;99.90;;;;;;4999509;28;20030;-71
2022/03/31 03:20:13;;;;;;;0.10;0.10;;;7.50;99.90;;;;;;5002256;28;20026;-70
2022/03/31 03:22:44;;;;;;;0.35;0.35;;;7.50;99.90;;;;;;5005463;28;20041;-71
2022/03/31 03:25:11;;;;;;;0.10;0.10;;;7.50;99.90;;;;;;5020366;28;20431;-71
2022/03/31 03:27:40;;;;;;;0.40;0.40;;;7.60;99.90;;;;;;5003472;28;20027;-72
2022/03/31 03:30:07;;;;;;;0.85;0.85;;;7.50;99.90;;;;;;5006053;28;20443;-70
2022/03/31 03:32:34;;;;;;;0.10;0.10;;;7.50;99.90;;;;;;5006468;28;20042;-73
2022/03/31 03:35:00;;;;;;;0.52;0.52;;;7.40;99.90;;;;;;5005709;28;20046;-71
2022/03/31 03:37:26;;;;;;;0.10;0.10;;;7.40;99.90;;;;;;4999800;28;20030;-72
2022/03/31 03:39:51;;;;;;;0.10;0.10;;;7.40;99.90;;;;;;4999122;28;20328;-72
2022/03/31 03:42:17;;;;;;;0.10;0.10;;;7.40;99.90;;;;;;5000550;28;20083;-71
2022/03/31 03:44:43;;;;;;;1.00;1.00;;;7.50;99.90;;;;;;5006878;28;20030;-70
2022/03/31 03:47:08;;;;;;;0.38;0.38;;;7.50;99.90;;;;;;5003216;28;20030;-70
2022/03/31 03:49:34;;;;;;;0.10;0.10;;;7.40;99.90;;;;;;5003035;28;20480;-72
2022/03/31 03:52:00;;;;;;;0.15;0.15;;;7.70;99.90;;;;;;5005099;28;20105;-72
2022/03/31 03:54:27;;;;;;;0.10;0.10;;;7.50;99.90;;;;;;5000782;28;20038;-71
2022/03/31 03:56:52;;;;;;;0.20;0.20;;;7.40;99.90;;;;;;5000717;28;20038;-72
2022/03/31 03:59:18;;;;;;;0.20;0.20;;;7.40;99.90;;;;;;5005237;28;20101;-72
2022/03/31 04:01:44;;;;;;;5.05;1.58;;;7.30;99.90;;;;;;5005852;28;20488;-71
2022/03/31 04:04:10;;;;;;;0.20;0.20;;;7.40;99.90;;;;;;5005401;28;20026;-70
2022/03/31 04:06:37;;;;;;;1.45;0.82;;;7.40;99.90;;;;;;5003536;28;20037;-71
2022/03/31 04:09:03;;;;;;;0.10;0.10;;;7.30;99.90;;;;;;5004407;28;20029;-71
2022/03/31 04:11:29;;;;;;;0.10;0.10;;;7.30;99.90;;;;;;4998148;28;20505;-72
2022/03/31 04:13:54;;;;;;;0.38;0.38;;;7.40;99.90;;;;;;5000158;28;20036;-72
2022/03/31 04:16:20;;;;;;;0.10;0.10;;;7.40;99.90;;;;;;4998483;28;20499;-71
2022/03/31 04:18:46;;;;;;;0.63;0.63;;;7.40;99.90;;;;;;5003519;28;20149;-71
2022/03/31 04:21:13;;;;;;;0.10;0.10;;;7.30;99.90;;;;;;4999054;28;20109;-72
2022/03/31 04:23:39;;;;;;;0.10;0.10;;;7.20;99.90;;;;;;5005653;28;20030;-70
2022/03/31 04:26:05;;;;;;;0.20;0.20;;;7.10;99.90;;;;;;5004516;28;20415;-72
2022/03/31 04:28:30;;;;;;;0.25;0.25;;;7.00;99.90;;;;;;5003221;28;20076;-73
2022/03/31 04:30:56;;;;;;;0.95;0.95;;;7.00;99.90;;;;;;4999700;28;20159;-72
2022/03/31 04:33:22;;;;;;;0.80;0.80;;;7.10;99.90;;;;;;5006716;28;20030;-70
2022/03/31 04:35:47;;;;;;;0.25;0.25;;;7.20;99.90;;;;;;5006014;28;20032;-71
2022/03/31 04:38:13;;;;;;;0.10;0.10;;;7.10;99.90;;;;;;5004360;28;20027;-71
2022/03/31 04:40:38;;;;;;;0.10;0.10;;;7.10;99.90;;;;;;5006908;28;20488;-72
2022/03/31 04:43:04;;;;;;;0.10;0.10;;;7.00;99.90;;;;;;5002803;28;20030;-71
2022/03/31 04:45:30;;;;;;;0.85;0.85;;;6.90;99.90;;;;;;5012034;28;20053;-72
2022/03/31 04:47:55;;;;;;;0.57;0.57;;;7.00;99.90;;;;;;5002577;28;20484;-72
2022/03/31 04:50:21;;;;;;;0.85;0.55;;;6.90;99.90;;;;;;5005264;28;20030;-72
2022/03/31 04:52:47;;;;;;;0.10;0.10;;;6.90;99.90;;;;;;5001074;28;20495;-71
2022/03/31 04:55:12;;;;;;;0.10;0.10;;;6.90;99.90;;;;;;4997481;28;20448;-71
2022/03/31 04:57:38;;;;;;;0.30;0.30;;;6.90;99.90;;;;;;4996540;28;20041;-71
2022/03/31 05:00:05;;;;;;;0.10;0.10;;;6.90;99.90;;;;;;5001110;28;20027;-72
2022/03/31 05:02:31;;;;;;;0.10;0.10;;;6.90;99.90;;;;;;5004830;28;20112;-72
2022/03/31 05:04:57;;;;;;;0.20;0.20;;;6.80;99.90;;;;;;5002454;28;20129;-71
2022/03/31 05:07:22;;;;;;;0.10;0.10;;;6.80;99.90;;;;;;5007163;28;20018;-72
2022/03/31 05:09:48;;;;;;;0.10;0.10;;;6.70;99.90;;;;;;5011503;28;20026;-71
2022/03/31 05:12:14;;;;;;;0.10;0.10;;;6.70;99.90;;;;;;5011292;28;20025;-72
2022/03/31 05:14:40;;;;;;;0.10;0.10;;;6.70;99.90;;;;;;4993645;28;20088;-72
2022/03/31 05:17:06;;;;;;;0.20;0.20;;;6.70;99.90;;;;;;4991648;28;20053;-73
2022/03/31 05:19:33;;;;;;;0.10;0.10;;;6.60;99.90;;;;;;4992272;28;20482;-73
2022/03/31 05:21:58;;;;;;;0.10;0.10;;;6.70;99.90;;;;;;4992042;28;20034;-72
2022/03/31 05:24:24;;;;;;;0.10;0.10;;;6.80;99.90;;;;;;4992092;28;20137;-73
2022/03/31 05:26:53;;;;;;;0.55;0.55;;;6.80;99.90;;;;;;5010132;28;20061;-74
2022/03/31 05:29:22;;;;;;;1.00;1.00;;;6.90;99.90;;;;;;5006791;28;20018;-73
2022/03/31 05:31:48;;;;;;;0.10;0.10;;;6.80;99.90;;;;;;5010873;28;20021;-73
2022/03/31 05:34:14;;;;;;;0.10;0.10;;;6.80;99.90;;;;;;4991666;28;20029;-73
2022/03/31 05:39:16;;;;;;;0.10;0.10;;;6.80;99.90;;;;;;5742689;23;20115;-71
2022/03/31 05:41:41;;;;;;;0.10;0.10;;;6.60;99.90;;;;;;5016573;28;20045;-70
2022/03/31 05:44:07;;;;;;;0.90;0.90;;;6.40;99.90;;;;;;5022542;28;20071;-69
2022/03/31 05:46:33;;;;;;;0.10;0.10;;;6.30;99.90;;;;;;5019894;28;20493;-69
2022/03/31 05:48:58;;;;;;;0.82;0.82;;;6.60;99.90;;;;;;5023543;28;20086;-69
2022/03/31 05:51:24;;;;;;;0.10;0.10;;;6.60;99.90;;;;;;5017910;28;20033;-71
2022/03/31 05:53:50;;;;;;;0.10;0.10;;;6.70;99.90;;;;;;5017709;28;20045;-69
2022/03/31 05:56:16;;;;;;;0.35;0.35;;;6.70;99.90;;;;;;5020455;28;20026;-68
2022/03/31 05:58:41;;;;;;;0.10;0.10;;;7.00;99.90;;;;;;5024482;28;20037;-69
2022/03/31 06:01:07;;;;;;;0.10;0.10;;;6.90;99.90;;;;;;5026313;28;20449;-69
2022/03/31 06:03:33;;;;;;;0.10;0.10;;;6.90;99.90;;;;;;5022143;28;20030;-68
2022/03/31 06:05:58;;;;;;;0.10;0.10;;;6.90;99.90;;;;;;5019650;28;20033;-68
2022/03/31 06:08:25;;;;;;;0.10;0.10;;;6.90;99.90;;;;;;5020548;28;20501;-70
2022/03/31 06:10:51;;;;;;;0.20;0.20;;;6.90;99.90;;;;;;5014744;28;20720;-70
2022/03/31 06:13:16;;;;;;;0.17;0.17;;;7.00;99.90;;;;;;5033188;22;20033;-74
2022/03/31 06:15:42;;;;;;;0.30;0.30;;;7.10;99.90;;;;;;4964253;28;20497;-75
2022/03/31 06:18:08;;;;;;;0.10;0.10;;;7.10;99.90;;;;;;4972918;28;20106;-75
2022/03/31 06:20:34;;;;;;;0.15;0.15;;;7.10;99.90;;;;;;4967723;28;20085;-74
2022/03/31 06:23:03;;;;;;;0.10;0.10;;;7.10;99.90;;;;;;4967168;28;20060;-78
2022/03/31 06:25:29;;;;;;;0.10;0.10;;;7.20;99.90;;;;;;4955052;28;20131;-76
2022/03/31 06:27:56;;;;;;;0.20;0.20;;;7.20;99.90;;;;;;4954639;28;20027;-76
2022/03/31 06:30:22;;;;;;;0.10;0.10;;;7.20;99.90;;;;;;4955667;28;20074;-75
2022/03/31 06:32:48;;;;;;;0.57;0.57;;;7.20;99.90;;;;;;4949768;28;20055;-77
2022/03/31 06:35:17;;;;;;;0.73;0.73;;;7.10;99.90;;;;;;4951725;28;20489;-74
2022/03/31 06:37:47;;;;;;;0.10;0.10;;;7.10;99.90;;;;;;4952671;28;20043;-74
2022/03/31 06:40:15;;;;;;;0.10;0.10;;;7.10;99.90;;;;;;4945442;28;20489;-75
2022/03/31 06:42:43;;;;;;;0.10;0.10;;;7.20;99.90;;;;;;4952417;29;20118;-75
2022/03/31 06:45:12;;;;;;;0.45;0.45;;;7.00;99.90;;;;;;4951304;29;20031;-76
2022/03/31 06:47:41;;;;;;;0.10;0.10;;;7.10;99.90;;;;;;4950078;28;20118;-75
2022/03/31 06:50:08;;;;;;;0.10;0.10;;;7.10;99.90;;;;;;4950682;28;20039;-75
2022/03/31 06:52:34;;;;;;;0.20;0.20;;;7.20;99.90;;;;;;4985947;28;20035;-74
2022/03/31 06:54:59;;;;;;;0.10;0.10;;;7.10;99.90;;;;;;4952404;28;20595;-75
2022/03/31 06:57:25;;;;;;;0.10;0.10;;;7.10;99.90;;;;;;4950351;28;20023;-73
2022/03/31 06:59:51;;;;;;;0.10;0.10;;;7.20;99.90;;;;;;4954048;28;20062;-74
2022/03/31 07:02:17;;;;;;;0.32;0.32;;;7.30;99.90;;;;;;4955814;28;20105;-75
2022/03/31 07:04:43;;;;;;;0.10;0.10;;;7.40;99.90;;;;;;4985637;28;20038;-75
2022/03/31 07:07:09;;;;;;;0.10;0.10;;;7.40;99.90;;;;;;4955505;28;20038;-75
2022/03/31 07:09:35;;;;;;;0.10;0.10;;;7.40;99.90;;;;;;4972260;28;20036;-76
2022/03/31 07:12:04;;;;;;;0.10;0.10;;;7.40;99.90;;;;;;4955181;28;20449;-78
2022/03/31 07:14:36;;;;;;;0.10;0.10;;;7.30;99.90;;;;;;4949744;28;20035;-78
2022/03/31 07:17:02;;;;;;;0.10;0.10;;;7.30;99.90;;;;;;4951559;28;20023;-76
2022/03/31 07:19:27;;;;;;;0.10;0.10;;;7.40;99.90;;;;;;4948837;28;20034;-76
2022/03/31 07:21:53;;;;;;;0.10;0.10;;;6.50;99.90;;;;;;4953981;28;20500;-76
2022/03/31 07:24:19;;;;;;;0.10;0.10;;;7.50;99.90;;;;;;4949111;28;20051;-73
2022/03/31 07:26:44;;;;;;;0.15;0.15;;;7.50;99.90;;;;;;4956194;28;20035;-77
2022/03/31 07:29:10;;;;;;;0.10;0.10;;;7.70;99.90;;;;;;4953413;28;20185;-77
2022/03/31 07:31:36;;;;;;;0.60;0.60;;;7.60;99.90;;;;;;4965000;28;20028;-73
2022/03/31 07:34:02;;;;;;;0.20;0.20;;;7.70;99.90;;;;;;4955650;28;20050;-72
2022/03/31 07:36:27;;;;;;;0.10;0.10;;;7.80;99.90;;;;;;4948548;28;20038;-74
2022/03/31 07:38:53;;;;;;;0.10;0.10;;;7.80;99.90;;;;;;4962242;28;20176;-74
2022/03/31 07:41:19;;;;;;;0.10;0.10;;;7.90;99.90;;;;;;4954526;28;20032;-75
2022/03/31 07:43:45;;;;;;;0.10;0.10;;;7.80;99.90;;;;;;4962390;28;20042;-75
2022/03/31 07:46:11;;;;;;;0.20;0.20;;;7.90;99.90;;;;;;4956861;28;20031;-74
2022/03/31 07:48:37;;;;;;;0.10;0.10;;;7.90;99.90;;;;;;4960680;28;20231;-72
2022/03/31 07:51:03;;;;;;;0.10;0.10;;;7.90;99.90;;;;;;4951805;28;20131;-72
2022/03/31 07:53:33;;;;;;;0.10;0.10;;;8.00;99.90;;;;;;4956573;28;20023;-74
2022/03/31 07:56:03;;;;;;;0.10;0.10;;;8.20;99.90;;;;;;4960562;28;20027;-73
2022/03/31 07:58:29;;;;;;;0.10;0.10;;;8.00;99.90;;;;;;4962094;28;20038;-73
2022/03/31 08:00:55;;;;;;;0.25;0.25;;;8.00;99.90;;;;;;4956872;28;20019;-73
2022/03/31 08:03:22;;;;;;;0.10;0.10;;;8.10;99.90;;;;;;4957238;28;20061;-74
2022/03/31 08:05:49;;;;;;;0.10;0.10;;;8.20;99.90;;;;;;4957758;28;20058;-75
2022/03/31 08:08:14;;;;;;;0.10;0.10;;;8.30;99.90;;;;;;4947345;28;20058;-76
2022/03/31 08:10:41;;;;;;;0.57;0.57;;;8.50;99.90;;;;;;4953162;28;20039;-73
2022/03/31 08:13:08;;;;;;;0.10;0.10;;;8.60;99.90;;;;;;4958913;28;20027;-74
2022/03/31 08:15:34;;;;;;;0.10;0.10;;;8.40;99.90;;;;;;4960963;28;20438;-74
2022/03/31 08:18:00;;;;;;;0.30;0.30;;;8.30;99.90;;;;;;4956341;28;20104;-74
2022/03/31 08:20:26;;;;;;;1.48;1.48;;;8.30;99.90;;;;;;4956033;28;20027;-77
2022/03/31 08:22:52;;;;;;;0.10;0.10;;;8.30;99.90;;;;;;4953575;28;20045;-76
2022/03/31 08:25:18;;;;;;;0.30;0.30;;;8.20;99.90;;;;;;4958064;28;20033;-77
2022/03/31 08:27:45;;;;;;;0.10;0.10;;;8.20;99.90;;;;;;4952357;28;20082;-76
2022/03/31 08:30:16;;;;;;;0.10;0.10;;;8.30;99.90;;;;;;4957184;28;20106;-70
2022/03/31 08:32:43;;;;;;;0.10;0.10;;;8.20;99.90;;;;;;4957173;28;20035;-70
2022/03/31 08:35:10;;;;;;;3.53;3.17;;;8.30;99.90;;;;;;4957345;28;20561;-70
2022/03/31 08:37:37;;;;;;;0.85;0.85;;;8.50;99.90;;;;;;4947293;28;20027;-73
2022/03/31 08:40:04;;;;;;;1.25;1.25;;;8.40;99.90;;;;;;4958451;28;20502;-74
2022/03/31 08:42:30;;;;;;;0.10;0.10;;;8.30;99.90;;;;;;4957625;28;20039;-76
2022/03/31 08:44:57;;;;;;;0.10;0.10;;;8.30;99.90;;;;;;4956788;28;20090;-75
2022/03/31 08:47:26;;;;;;;0.40;0.40;;;8.40;99.90;;;;;;4951799;28;20031;-75
2022/03/31 08:49:55;;;;;;;0.40;0.40;;;8.30;99.90;;;;;;4958066;28;20493;-75
2022/03/31 08:52:22;;;;;;;0.30;0.30;;;8.20;99.90;;;;;;4948150;28;20126;-75
2022/03/31 08:54:48;;;;;;;0.10;0.10;;;8.20;99.90;;;;;;4953278;28;20086;-75
2022/03/31 08:57:14;;;;;;;0.20;0.20;;;8.30;99.90;;;;;;4951312;28;20115;-76
2022/03/31 08:59:40;;;;;;;0.10;0.10;;;8.30;99.90;;;;;;4954707;28;20118;-75
2022/03/31 09:02:05;;;;;;;0.25;0.25;;;8.40;99.90;;;;;;4954203;28;20508;-71
2022/03/31 09:04:31;;;;;;;0.10;0.10;;;8.60;99.90;;;;;;4955014;28;20026;-72
2022/03/31 09:07:05;;;;;;;0.68;0.68;;;8.80;99.90;;;;;;4953019;28;20075;-71
2022/03/31 09:09:31;;;;;;;0.45;0.45;;;9.10;99.90;;;;;;4962306;28;20130;-71
2022/03/31 09:11:57;;;;;;;0.10;0.10;;;9.10;99.90;;;;;;4947285;28;20121;-72
2022/03/31 09:14:33;;;;;;;0.10;0.10;;;9.30;99.90;;;;;;4952799;28;20028;-72
2022/03/31 09:17:12;;;;;;;0.10;0.10;;;9.60;99.90;;;;;;4943993;28;20110;-71
2022/03/31 09:19:38;;;;;;;0.10;0.10;;;9.70;99.90;;;;;;4950797;28;20023;-71
2022/03/31 09:22:04;;;;;;;0.10;0.10;;;9.60;99.90;;;;;;4948245;28;20031;-75
2022/03/31 09:24:31;;;;;;;0.10;0.10;;;9.60;99.90;;;;;;4970223;28;20506;-75
2022/03/31 09:26:58;;;;;;;0.10;0.10;;;9.50;99.90;;;;;;4985590;28;20058;-76
2022/03/31 09:29:26;;;;;;;0.10;0.10;;;9.40;99.90;;;;;;4955540;28;20331;-76
2022/03/31 09:32:04;;;;;;;0.10;0.10;;;9.30;99.90;;;;;;4956293;28;20054;-76
2022/03/31 09:34:42;;;;;;;0.10;0.10;;;9.30;99.90;;;;;;4957341;28;20054;-76
2022/03/31 09:37:08;;;;;;;0.10;0.10;;;9.30;99.90;;;;;;4962898;28;20567;-75
2022/03/31 09:39:34;;;;;;;1.38;1.30;;;9.30;99.90;;;;;;4956393;28;20109;-75
2022/03/31 09:42:00;;;;;;;2.15;2.05;;;9.60;99.90;;;;;;4954946;28;20023;-77
2022/03/31 09:44:26;;;;;;;0.10;0.10;;;9.80;99.90;;;;;;4957778;28;20031;-76
2022/03/31 09:46:53;;;;;;;0.10;0.10;;;10.10;99.90;;;;;;4957077;28;20030;-77
2022/03/31 09:49:21;;;;;;;0.20;0.20;;;10.00;99.90;;;;;;4956246;28;20068;-77
2022/03/31 09:52:02;;;;;;;0.10;0.10;;;9.90;99.90;;;;;;4954971;28;20572;-77
2022/03/31 09:54:30;;;;;;;0.10;0.10;;;10.20;99.90;;;;;;4959599;28;20319;-76
2022/03/31 09:56:59;;;;;;;0.10;0.10;;;10.30;99.90;;;;;;4950987;28;20047;-74
2022/03/31 09:59:38;;;;;;;0.10;0.10;;;10.30;99.90;;;;;;4957107;28;20086;-76
2022/03/31 10:02:04;;;;;;;0.10;0.10;;;10.40;99.90;;;;;;4954598;28;20057;-76
2022/03/31 10:04:31;;;;;;;0.10;0.10;;;10.60;99.90;;;;;;4956907;28;20051;-76
2022/03/31 10:06:58;;;;;;;0.10;0.10;;;10.50;99.90;;;;;;4962782;28;20503;-78
2022/03/31 10:09:25;;;;;;;0.10;0.10;;;10.00;99.90;;;;;;4962222;28;20035;-77
2022/03/31 10:12:07;;;;;;;0.10;0.10;;;10.30;99.90;;;;;;4958354;28;20022;-72
2022/03/31 10:14:43;;;;;;;0.10;0.10;;;10.60;99.90;;;;;;4956414;28;20031;-71
2022/03/31 10:17:10;;;;;;;0.10;0.10;;;11.30;99.90;;;;;;4957514;28;20592;-73
2022/03/31 10:19:43;;;;;;;0.10;0.10;;;11.20;99.90;;;;;;4961438;28;20042;-72
2022/03/31 10:25:07;;;;;;;0.10;0.10;;;11.50;99.90;;;;;;4968520;28;20062;-72
2022/03/31 10:27:35;;;;;;;0.10;0.10;;;11.40;99.90;;;;;;4966835;28;20541;-79
2022/03/31 10:30:19;;;;;;;0.10;0.10;;;11.20;99.90;;;;;;4953414;28;20039;-75
2022/03/31 10:32:51;;;;;;;0.10;0.10;;;10.90;99.90;;;;;;4954621;28;20031;-75
2022/03/31 10:35:26;;;;;;;0.10;0.10;;;10.80;99.90;;;;;;4955330;28;20047;-78
2022/03/31 10:37:53;;;;;;;0.10;0.10;;;11.20;99.90;;;;;;4950926;28;20039;-76
2022/03/31 10:40:32;;;;;;;1.48;1.38;;;11.20;99.90;;;;;;4958845;28;20034;-76
2022/03/31 10:42:58;;;;;;;0.10;0.10;;;11.00;99.90;;;;;;4956968;28;20099;-76
2022/03/31 10:45:44;;;;;;;0.10;0.10;;;11.20;99.90;;;;;;4951082;28;20101;-75
2022/03/31 10:48:18;;;;;;;0.10;0.10;;;11.30;99.90;;;;;;4959133;28;20042;-78
2022/03/31 10:50:45;;;;;;;0.10;0.10;;;11.20;99.90;;;;;;4960506;28;20043;-76
2022/03/31 10:53:11;;;;;;;0.10;0.10;;;10.80;99.90;;;;;;4956445;28;20098;-79
2022/03/31 10:55:43;;;;;;;0.10;0.10;;;10.90;99.90;;;;;;4969041;28;20039;-77
2022/03/31 10:58:28;;;;;;;0.10;0.10;;;11.00;99.90;;;;;;4950820;28;20121;-74
2022/03/31 11:00:55;;;;;;;0.10;0.10;;;11.20;99.90;;;;;;4957021;28;20306;-78
2022/03/31 11:03:22;;;;;;;0.10;0.10;;;11.10;99.90;;;;;;4948556;28;20113;-76
2022/03/31 11:05:49;;;;;;;0.10;0.10;;;11.50;99.90;;;;;;4953300;28;20035;-75
2022/03/31 11:08:19;;;;;;;0.10;0.10;;;11.30;99.90;;;;;;4951735;28;20094;-78
2022/03/31 11:10:52;;;;;;;0.10;0.10;;;11.40;99.90;;;;;;4956791;28;20031;-76
2022/03/31 11:13:20;;;;;;;0.10;0.10;;;11.20;99.90;;;;;;4954511;28;20031;-75
2022/03/31 11:15:56;;;;;;;0.85;0.85;;;11.40;99.90;;;;;;4963606;28;20038;-76
2022/03/31 11:18:23;;;;;;;0.10;0.10;;;11.30;99.90;;;;;;4959911;28;20023;-77
2022/03/31 11:20:54;;;;;;;0.10;0.10;;;11.00;99.90;;;;;;4959196;28;20039;-77
2022/03/31 11:23:20;;;;;;;0.10;0.10;;;10.60;99.90;;;;;;4959900;28;20370;-76
2022/03/31 11:25:46;;;;;;;0.10;0.10;;;10.90;99.90;;;;;;4965324;28;20034;-77
2022/03/31 11:28:13;;;;;;;0.10;0.10;;;10.90;99.90;;;;;;4959174;28;20038;-79
2022/03/31 11:30:40;;;;;;;0.10;0.10;;;11.00;99.90;;;;;;4994658;28;20444;-77
2022/03/31 11:33:11;;;;;;;0.10;0.10;;;11.10;99.90;;;;;;4955267;28;20039;-76
2022/03/31 11:35:38;;;;;;;0.10;0.10;;;11.00;99.90;;;;;;4957863;28;20035;-78
2022/03/31 11:38:09;;;;;;;0.10;0.10;;;11.00;99.90;;;;;;4957454;28;20031;-77
2022/03/31 11:40:40;;;;;;;0.10;0.10;;;10.90;99.90;;;;;;4962441;28;20034;-73
2022/03/31 11:43:09;;;;;;;0.10;0.10;;;10.80;99.90;;;;;;4961573;28;20063;-73
2022/03/31 11:45:36;;;;;;;0.10;0.10;;;11.00;99.90;;;;;;4958117;28;20076;-72
2022/03/31 11:48:07;;;;;;;0.10;0.10;;;11.10;99.90;;;;;;4961868;28;20034;-73
2022/03/31 11:50:37;;;;;;;0.15;0.15;;;11.20;99.90;;;;;;4959863;28;20085;-75
2022/03/31 11:53:14;;;;;;;0.10;0.10;;;11.30;99.90;;;;;;4959815;28;20087;-76
2022/03/31 11:55:41;;;;;;;0.55;0.55;;;11.40;99.90;;;;;;4965953;28;20055;-73
2022/03/31 11:58:08;;;;;;;0.43;0.43;;;11.50;99.90;;;;;;4956903;28;20122;-74
2022/03/31 12:00:34;;;;;;;0.10;0.10;;;11.30;99.90;;;;;;4962256;28;20468;-76
2022/03/31 12:03:03;;;;;;;0.10;0.10;;;11.40;99.90;;;;;;4955076;28;20521;-77
2022/03/31 12:05:29;;;;;;;0.10;0.10;;;11.60;99.90;;;;;;4965301;28;20034;-77
2022/03/31 12:07:56;;;;;;;0.10;0.10;;;11.40;99.90;;;;;;4959529;28;20030;-77
2022/03/31 12:10:22;;;;;;;0.10;0.10;;;11.30;99.90;;;;;;4963668;28;20122;-74
2022/03/31 12:12:53;;;;;;;0.10;0.10;;;11.30;99.90;;;;;;4981407;28;20027;-74
2022/03/31 12:15:25;;;;;;;0.10;0.10;;;11.20;99.90;;;;;;5024902;23;20063;-71
2022/03/31 12:17:59;;;;;;;0.43;0.43;;;11.20;99.90;;;;;;5038413;28;20060;-73
2022/03/31 12:20:26;;;;;;;0.30;0.30;;;11.30;99.90;;;;;;5044413;28;20021;-73
2022/03/31 12:22:52;;;;;;;0.10;0.10;;;11.30;99.90;;;;;;5036247;28;20025;-72
2022/03/31 12:25:33;;;;;;;0.10;0.10;;;11.50;99.90;;;;;;5040925;28;20442;-72
2022/03/31 12:28:02;;;;;;;0.10;0.10;;;11.50;99.90;;;;;;5029148;28;20092;-72
2022/03/31 12:30:50;;;;;;;0.10;0.10;;;11.70;99.90;;;;;;5039100;28;20064;-71
2022/03/31 12:33:34;;;;;;;0.60;0.60;;;11.90;99.90;;;;;;5036832;28;20040;-72
2022/03/31 12:36:06;;;;;;;0.57;0.57;;;11.60;99.90;;;;;;5030467;28;20752;-72
2022/03/31 12:38:38;;;;;;;0.10;0.10;;;11.40;99.90;;;;;;5029747;28;20025;-72
2022/03/31 12:41:13;;;;;;;0.10;0.10;;;11.40;99.90;;;;;;5040511;28;20087;-72
2022/03/31 12:43:39;;;;;;;0.10;0.10;;;11.30;99.90;;;;;;5027122;28;20606;-72
2022/03/31 12:46:13;;;;;;;0.20;0.20;;;11.30;99.90;;;;;;5035353;28;20155;-70
2022/03/31 12:48:54;;;;;;;0.10;0.10;;;11.10;99.90;;;;;;5034352;28;20022;-71
2022/03/31 12:51:21;;;;;;;1.65;0.73;;;11.10;99.90;;;;;;5036530;28;20094;-73
2022/03/31 12:53:47;;;;;;;0.10;0.10;;;10.90;99.90;;;;;;5029693;28;20026;-72
2022/03/31 12:56:21;;;;;;;0.30;0.30;;;10.90;99.90;;;;;;5033912;28;20502;-64
2022/03/31 12:58:47;;;;;;;0.10;0.10;;;10.60;99.90;;;;;;5041788;28;20040;-72
2022/03/31 13:01:13;;;;;;;0.10;0.10;;;10.70;99.90;;;;;;5035263;28;20022;-71
2022/03/31 13:03:38;;;;;;;0.10;0.10;;;10.80;99.90;;;;;;5028665;28;20025;-71
2022/03/31 13:06:04;;;;;;;0.10;0.10;;;10.90;99.90;;;;;;5036704;28;20052;-72